sensor_id;sensor_type;location;lat;lon;timestamp;temperature;humidity
42913;DHT22;50720;54.324;18.558;2023-11-21T00:00:15;-0.10;99.90
42913;DHT22;50720;54.324;18.558;2023-11-21T00:02:59;-0.10;99.90
42913;DHT22;50720;54.324;18.558;2023-11-21T00:05:42;-0.10;99.90
42913;DHT22;50720;54.324;18.558;2023-11-21T00:08:26;-0.10;99.90
42913;DHT22;50720;54.324;18.558;2023-11-21T00:11:09;-0.10;99.90
42913;DHT22;50720;54.324;18.558;2023-11-21T00:13:54;-0.10;99.90
42913;DHT22;50720;54.324;18.558;2023-11-21T00:16:38;-0.10;99.90
42913;DHT22;50720;54.324;18.558;2023-11-21T00:19:22;-0.10;99.90
42913;DHT22;50720;54.324;18.558;2023-11-21T00:22:05;-0.10;99.90
42913;DHT22;50720;54.324;18.558;2023-11-21T00:24:49;-0.20;99.90
42913;DHT22;50720;54.324;18.558;2023-11-21T00:27:32;-0.20;99.90
42913;DHT22;50720;54.324;18.558;2023-11-21T00:30:18;-0.20;99.90
42913;DHT22;50720;54.324;18.558;2023-11-21T00:33:04;-0.20;99.90
42913;DHT22;50720;54.324;18.558;2023-11-21T00:35:48;-0.20;99.90
42913;DHT22;50720;54.324;18.558;2023-11-21T00:38:31;-0.20;99.90
42913;DHT22;50720;54.324;18.558;2023-11-21T00:41:14;-0.20;99.90
42913;DHT22;50720;54.324;18.558;2023-11-21T00:43:58;-0.20;99.90
42913;DHT22;50720;54.324;18.558;2023-11-21T00:46:44;-0.20;99.90
42913;DHT22;50720;54.324;18.558;2023-11-21T00:49:27;-0.20;99.90
42913;DHT22;50720;54.324;18.558;2023-11-21T00:52:11;-0.20;99.90
42913;DHT22;50720;54.324;18.558;2023-11-21T00:54:55;-0.20;99.90
42913;DHT22;50720;54.324;18.558;2023-11-21T00:57:38;-0.30;99.90
42913;DHT22;50720;54.324;18.558;2023-11-21T01:00:21;-0.20;99.90
42913;DHT22;50720;54.324;18.558;2023-11-21T01:03:07;-0.20;99.90
42913;DHT22;50720;54.324;18.558;2023-11-21T01:05:51;-0.20;99.90
42913;DHT22;50720;54.324;18.558;2023-11-21T01:08:34;-0.30;99.90
42913;DHT22;50720;54.324;18.558;2023-11-21T01:11:18;-0.20;99.90
42913;DHT22;50720;54.324;18.558;2023-11-21T01:14:02;-0.20;99.90
42913;DHT22;50720;54.324;18.558;2023-11-21T01:16:46;-0.20;99.90
42913;DHT22;50720;54.324;18.558;2023-11-21T01:19:32;-0.20;53.70
42913;DHT22;50720;54.324;18.558;2023-11-21T01:22:16;-0.20;99.90
42913;DHT22;50720;54.324;18.558;2023-11-21T01:25:04;-0.20;99.90
42913;DHT22;50720;54.324;18.558;2023-11-21T01:27:49;-0.20;99.90
42913;DHT22;50720;54.324;18.558;2023-11-21T01:30:33;-0.10;1.00
42913;DHT22;50720;54.324;18.558;2023-11-21T01:33:18;-0.10;99.90
42913;DHT22;50720;54.324;18.558;2023-11-21T01:36:04;-0.10;99.90
42913;DHT22;50720;54.324;18.558;2023-11-21T01:38:49;0.00;99.90
42913;DHT22;50720;54.324;18.558;2023-11-21T01:41:32;0.00;99.90
42913;DHT22;50720;54.324;18.558;2023-11-21T01:44:17;0.00;99.90
42913;DHT22;50720;54.324;18.558;2023-11-21T01:47:02;0.00;99.90
42913;DHT22;50720;54.324;18.558;2023-11-21T01:49:47;0.00;99.90
42913;DHT22;50720;54.324;18.558;2023-11-21T01:52:33;0.10;99.90
42913;DHT22;50720;54.324;18.558;2023-11-21T01:55:17;0.10;75.50
42913;DHT22;50720;54.324;18.558;2023-11-21T01:58:10;0.10;99.90
42913;DHT22;50720;54.324;18.558;2023-11-21T02:00:55;0.20;99.90
42913;DHT22;50720;54.324;18.558;2023-11-21T02:03:38;0.10;99.90
42913;DHT22;50720;54.324;18.558;2023-11-21T02:06:22;0.10;99.90
42913;DHT22;50720;54.324;18.558;2023-11-21T02:09:07;0.10;99.90
42913;DHT22;50720;54.324;18.558;2023-11-21T02:11:51;0.10;99.90
42913;DHT22;50720;54.324;18.558;2023-11-21T02:14:39;0.20;99.90
42913;DHT22;50720;54.324;18.558;2023-11-21T02:17:23;0.10;99.90
42913;DHT22;50720;54.324;18.558;2023-11-21T02:20:08;0.20;99.90
42913;DHT22;50720;54.324;18.558;2023-11-21T02:22:58;0.20;99.90
42913;DHT22;50720;54.324;18.558;2023-11-21T02:25:43;0.10;99.90
42913;DHT22;50720;54.324;18.558;2023-11-21T02:28:26;0.20;1.00
42913;DHT22;50720;54.324;18.558;2023-11-21T02:31:09;0.20;1.00
42913;DHT22;50720;54.324;18.558;2023-11-21T02:33:54;0.20;17.30
42913;DHT22;50720;54.324;18.558;2023-11-21T02:36:37;0.20;1.00
42913;DHT22;50720;54.324;18.558;2023-11-21T02:39:22;0.20;1.00
42913;DHT22;50720;54.324;18.558;2023-11-21T02:42:07;0.10;1.00
42913;DHT22;50720;54.324;18.558;2023-11-21T02:44:50;0.20;1.00
42913;DHT22;50720;54.324;18.558;2023-11-21T02:47:33;0.10;1.00
42913;DHT22;50720;54.324;18.558;2023-11-21T02:50:17;0.10;1.00
42913;DHT22;50720;54.324;18.558;2023-11-21T02:53:02;0.20;1.00
42913;DHT22;50720;54.324;18.558;2023-11-21T02:55:49;0.10;1.00
42913;DHT22;50720;54.324;18.558;2023-11-21T02:58:34;0.10;1.00
42913;DHT22;50720;54.324;18.558;2023-11-21T03:01:17;0.10;1.00
42913;DHT22;50720;54.324;18.558;2023-11-21T03:04:01;0.00;1.00
42913;DHT22;50720;54.324;18.558;2023-11-21T03:06:45;0.00;1.00
42913;DHT22;50720;54.324;18.558;2023-11-21T03:09:29;0.00;1.00
42913;DHT22;50720;54.324;18.558;2023-11-21T03:12:13;0.00;19.60
42913;DHT22;50720;54.324;18.558;2023-11-21T03:14:58;0.10;67.90
42913;DHT22;50720;54.324;18.558;2023-11-21T03:17:42;0.00;82.10
42913;DHT22;50720;54.324;18.558;2023-11-21T03:20:25;0.10;96.40
42913;DHT22;50720;54.324;18.558;2023-11-21T03:23:08;0.10;67.50
42913;DHT22;50720;54.324;18.558;2023-11-21T03:25:52;0.10;74.40
42913;DHT22;50720;54.324;18.558;2023-11-21T03:28:37;0.10;99.90
42913;DHT22;50720;54.324;18.558;2023-11-21T03:31:21;0.10;66.90
42913;DHT22;50720;54.324;18.558;2023-11-21T03:34:04;0.10;60.50
42913;DHT22;50720;54.324;18.558;2023-11-21T03:36:48;0.20;2.40
42913;DHT22;50720;54.324;18.558;2023-11-21T03:39:32;0.20;1.00
42913;DHT22;50720;54.324;18.558;2023-11-21T03:42:16;0.20;20.80
42913;DHT22;50720;54.324;18.558;2023-11-21T03:45:01;0.20;2.60
42913;DHT22;50720;54.324;18.558;2023-11-21T03:47:44;0.20;53.10
42913;DHT22;50720;54.324;18.558;2023-11-21T03:50:28;0.20;29.40
42913;DHT22;50720;54.324;18.558;2023-11-21T03:53:12;0.20;1.50
42913;DHT22;50720;54.324;18.558;2023-11-21T03:55:55;0.20;79.50
42913;DHT22;50720;54.324;18.558;2023-11-21T03:58:38;0.20;39.30
42913;DHT22;50720;54.324;18.558;2023-11-21T04:01:24;0.20;81.00
42913;DHT22;50720;54.324;18.558;2023-11-21T04:04:08;0.20;29.60
42913;DHT22;50720;54.324;18.558;2023-11-21T04:06:51;0.30;94.20
42913;DHT22;50720;54.324;18.558;2023-11-21T04:09:35;0.20;99.90
42913;DHT22;50720;54.324;18.558;2023-11-21T04:12:20;0.20;99.90
42913;DHT22;50720;54.324;18.558;2023-11-21T04:15:04;0.10;99.90
42913;DHT22;50720;54.324;18.558;2023-11-21T04:17:49;0.10;66.10
42913;DHT22;50720;54.324;18.558;2023-11-21T04:20:33;0.10;99.90
42913;DHT22;50720;54.324;18.558;2023-11-21T04:23:16;0.10;99.90
42913;DHT22;50720;54.324;18.558;2023-11-21T04:26:00;0.00;99.90
42913;DHT22;50720;54.324;18.558;2023-11-21T04:28:44;0.00;99.90
42913;DHT22;50720;54.324;18.558;2023-11-21T04:31:28;0.00;99.90
42913;DHT22;50720;54.324;18.558;2023-11-21T04:34:13;0.00;99.90
42913;DHT22;50720;54.324;18.558;2023-11-21T04:36:56;0.00;99.90
42913;DHT22;50720;54.324;18.558;2023-11-21T04:39:39;0.10;99.90
42913;DHT22;50720;54.324;18.558;2023-11-21T04:42:22;0.00;99.90
42913;DHT22;50720;54.324;18.558;2023-11-21T04:45:07;0.00;99.90
42913;DHT22;50720;54.324;18.558;2023-11-21T04:47:53;0.00;99.90
42913;DHT22;50720;54.324;18.558;2023-11-21T04:50:39;-0.10;99.90
42913;DHT22;50720;54.324;18.558;2023-11-21T04:53:22;-0.10;99.90
42913;DHT22;50720;54.324;18.558;2023-11-21T04:56:07;-0.10;99.90
42913;DHT22;50720;54.324;18.558;2023-11-21T04:58:50;-0.10;99.90
42913;DHT22;50720;54.324;18.558;2023-11-21T05:01:34;0.00;99.90
42913;DHT22;50720;54.324;18.558;2023-11-21T05:04:18;-0.10;99.90
42913;DHT22;50720;54.324;18.558;2023-11-21T05:07:03;0.00;99.90
42913;DHT22;50720;54.324;18.558;2023-11-21T05:09:47;-0.10;99.90
42913;DHT22;50720;54.324;18.558;2023-11-21T05:12:32;-0.10;99.90
42913;DHT22;50720;54.324;18.558;2023-11-21T05:15:17;-0.10;99.90
42913;DHT22;50720;54.324;18.558;2023-11-21T05:18:00;0.00;99.90
42913;DHT22;50720;54.324;18.558;2023-11-21T05:20:44;0.00;99.90
42913;DHT22;50720;54.324;18.558;2023-11-21T05:23:29;0.00;99.90
42913;DHT22;50720;54.324;18.558;2023-11-21T05:26:12;0.00;99.90
42913;DHT22;50720;54.324;18.558;2023-11-21T05:28:55;0.00;99.90
42913;DHT22;50720;54.324;18.558;2023-11-21T05:31:39;-0.10;99.90
42913;DHT22;50720;54.324;18.558;2023-11-21T05:34:23;-0.10;99.90
42913;DHT22;50720;54.324;18.558;2023-11-21T05:37:06;-0.10;99.90
42913;DHT22;50720;54.324;18.558;2023-11-21T05:39:51;-0.10;99.90
42913;DHT22;50720;54.324;18.558;2023-11-21T05:42:35;-0.10;99.90
42913;DHT22;50720;54.324;18.558;2023-11-21T05:45:21;-0.10;1.00
42913;DHT22;50720;54.324;18.558;2023-11-21T05:48:04;-0.10;1.00
42913;DHT22;50720;54.324;18.558;2023-11-21T05:50:48;-0.10;1.00
42913;DHT22;50720;54.324;18.558;2023-11-21T05:53:31;-0.10;1.00
42913;DHT22;50720;54.324;18.558;2023-11-21T05:56:16;-0.10;1.00
42913;DHT22;50720;54.324;18.558;2023-11-21T05:59:00;0.00;37.30
42913;DHT22;50720;54.324;18.558;2023-11-21T06:01:45;-0.10;36.20
42913;DHT22;50720;54.324;18.558;2023-11-21T06:04:29;-0.10;19.20
42913;DHT22;50720;54.324;18.558;2023-11-21T06:07:13;-0.10;51.20
42913;DHT22;50720;54.324;18.558;2023-11-21T06:09:56;-0.10;99.90
42913;DHT22;50720;54.324;18.558;2023-11-21T06:12:41;-0.10;99.90
42913;DHT22;50720;54.324;18.558;2023-11-21T06:15:25;-0.20;78.60
42913;DHT22;50720;54.324;18.558;2023-11-21T06:18:09;-0.20;99.90
42913;DHT22;50720;54.324;18.558;2023-11-21T06:20:56;-0.30;99.90
42913;DHT22;50720;54.324;18.558;2023-11-21T06:23:42;-0.30;99.90
42913;DHT22;50720;54.324;18.558;2023-11-21T06:26:27;-0.30;99.90
42913;DHT22;50720;54.324;18.558;2023-11-21T06:29:12;-0.30;99.90
42913;DHT22;50720;54.324;18.558;2023-11-21T06:31:55;-0.30;99.90
42913;DHT22;50720;54.324;18.558;2023-11-21T06:34:40;-0.30;99.90
42913;DHT22;50720;54.324;18.558;2023-11-21T06:37:24;-0.30;99.90
42913;DHT22;50720;54.324;18.558;2023-11-21T06:40:08;-0.30;99.90
42913;DHT22;50720;54.324;18.558;2023-11-21T06:42:52;-0.20;99.90
42913;DHT22;50720;54.324;18.558;2023-11-21T06:45:38;-0.30;99.90
42913;DHT22;50720;54.324;18.558;2023-11-21T06:48:22;-0.30;99.90
42913;DHT22;50720;54.324;18.558;2023-11-21T06:51:06;-0.30;99.90
42913;DHT22;50720;54.324;18.558;2023-11-21T06:53:49;-0.20;99.90
42913;DHT22;50720;54.324;18.558;2023-11-21T06:56:33;-0.30;99.90
42913;DHT22;50720;54.324;18.558;2023-11-21T06:59:17;-0.40;99.90
42913;DHT22;50720;54.324;18.558;2023-11-21T07:02:02;-0.40;99.90
42913;DHT22;50720;54.324;18.558;2023-11-21T07:04:47;-0.40;99.90
42913;DHT22;50720;54.324;18.558;2023-11-21T07:07:31;-0.40;99.90
42913;DHT22;50720;54.324;18.558;2023-11-21T07:10:16;-0.40;99.90
42913;DHT22;50720;54.324;18.558;2023-11-21T07:13:00;-0.30;99.90
42913;DHT22;50720;54.324;18.558;2023-11-21T07:15:43;-0.30;99.90
42913;DHT22;50720;54.324;18.558;2023-11-21T07:18:28;-0.20;99.90
42913;DHT22;50720;54.324;18.558;2023-11-21T07:21:12;-0.20;99.90
42913;DHT22;50720;54.324;18.558;2023-11-21T07:23:56;-0.10;99.90
42913;DHT22;50720;54.324;18.558;2023-11-21T07:26:39;-0.10;99.90
42913;DHT22;50720;54.324;18.558;2023-11-21T07:29:24;-0.10;99.90
42913;DHT22;50720;54.324;18.558;2023-11-21T07:32:08;0.00;99.90
42913;DHT22;50720;54.324;18.558;2023-11-21T07:34:53;0.10;99.90
42913;DHT22;50720;54.324;18.558;2023-11-21T07:37:39;0.20;99.90
42913;DHT22;50720;54.324;18.558;2023-11-21T07:40:23;0.30;99.90
42913;DHT22;50720;54.324;18.558;2023-11-21T07:43:08;0.50;37.70
42913;DHT22;50720;54.324;18.558;2023-11-21T07:45:52;0.50;36.10
42913;DHT22;50720;54.324;18.558;2023-11-21T07:48:36;0.60;1.00
42913;DHT22;50720;54.324;18.558;2023-11-21T07:51:21;0.60;1.00
42913;DHT22;50720;54.324;18.558;2023-11-21T07:54:05;0.60;1.00
42913;DHT22;50720;54.324;18.558;2023-11-21T07:56:48;0.60;1.00
42913;DHT22;50720;54.324;18.558;2023-11-21T07:59:32;0.60;1.00
42913;DHT22;50720;54.324;18.558;2023-11-21T08:02:15;0.60;1.00
42913;DHT22;50720;54.324;18.558;2023-11-21T08:05:00;0.60;1.00
42913;DHT22;50720;54.324;18.558;2023-11-21T08:07:45;0.60;1.00
42913;DHT22;50720;54.324;18.558;2023-11-21T08:10:28;0.60;1.00
42913;DHT22;50720;54.324;18.558;2023-11-21T08:13:12;0.60;1.00
42913;DHT22;50720;54.324;18.558;2023-11-21T08:15:58;0.70;1.00
42913;DHT22;50720;54.324;18.558;2023-11-21T08:18:44;0.80;1.00
42913;DHT22;50720;54.324;18.558;2023-11-21T08:21:28;0.90;1.00
42913;DHT22;50720;54.324;18.558;2023-11-21T08:24:14;0.90;99.90
42913;DHT22;50720;54.324;18.558;2023-11-21T08:27:00;0.90;99.90
42913;DHT22;50720;54.324;18.558;2023-11-21T08:29:43;0.90;1.00
42913;DHT22;50720;54.324;18.558;2023-11-21T08:32:26;1.00;1.00
42913;DHT22;50720;54.324;18.558;2023-11-21T08:35:10;1.10;1.00
42913;DHT22;50720;54.324;18.558;2023-11-21T08:37:54;1.20;1.00
42913;DHT22;50720;54.324;18.558;2023-11-21T08:40:40;1.30;99.90
42913;DHT22;50720;54.324;18.558;2023-11-21T08:43:23;1.40;99.90
42913;DHT22;50720;54.324;18.558;2023-11-21T08:46:09;1.50;99.90
42913;DHT22;50720;54.324;18.558;2023-11-21T08:48:53;1.50;99.90
42913;DHT22;50720;54.324;18.558;2023-11-21T08:51:37;1.40;99.90
42913;DHT22;50720;54.324;18.558;2023-11-21T08:54:21;1.50;99.90
42913;DHT22;50720;54.324;18.558;2023-11-21T08:57:06;1.60;99.90
42913;DHT22;50720;54.324;18.558;2023-11-21T08:59:49;1.70;99.90
42913;DHT22;50720;54.324;18.558;2023-11-21T09:02:37;1.70;99.90
42913;DHT22;50720;54.324;18.558;2023-11-21T09:05:21;1.80;99.90
42913;DHT22;50720;54.324;18.558;2023-11-21T09:08:04;1.90;99.90
42913;DHT22;50720;54.324;18.558;2023-11-21T09:10:48;1.90;13.70
42913;DHT22;50720;54.324;18.558;2023-11-21T09:13:34;2.00;1.00
42913;DHT22;50720;54.324;18.558;2023-11-21T09:16:19;2.00;1.00
42913;DHT22;50720;54.324;18.558;2023-11-21T09:19:03;2.00;60.90
42913;DHT22;50720;54.324;18.558;2023-11-21T09:21:47;2.00;77.20
42913;DHT22;50720;54.324;18.558;2023-11-21T09:24:31;2.00;1.00
42913;DHT22;50720;54.324;18.558;2023-11-21T09:27:14;2.00;1.00
42913;DHT22;50720;54.324;18.558;2023-11-21T09:30:01;2.20;1.00
42913;DHT22;50720;54.324;18.558;2023-11-21T09:32:45;2.20;1.00
42913;DHT22;50720;54.324;18.558;2023-11-21T09:35:29;2.30;1.00
42913;DHT22;50720;54.324;18.558;2023-11-21T09:38:13;2.30;99.90
42913;DHT22;50720;54.324;18.558;2023-11-21T09:40:58;2.30;99.90
42913;DHT22;50720;54.324;18.558;2023-11-21T09:43:41;2.30;99.90
42913;DHT22;50720;54.324;18.558;2023-11-21T09:46:28;2.20;63.90
42913;DHT22;50720;54.324;18.558;2023-11-21T09:49:13;2.20;92.40
42913;DHT22;50720;54.324;18.558;2023-11-21T09:51:57;2.30;77.70
42913;DHT22;50720;54.324;18.558;2023-11-21T09:54:41;2.30;61.00
42913;DHT22;50720;54.324;18.558;2023-11-21T09:57:25;2.40;90.00
42913;DHT22;50720;54.324;18.558;2023-11-21T10:00:12;2.40;94.70
42913;DHT22;50720;54.324;18.558;2023-11-21T10:03:01;2.50;77.10
42913;DHT22;50720;54.324;18.558;2023-11-21T10:05:45;2.60;58.90
42913;DHT22;50720;54.324;18.558;2023-11-21T10:08:32;2.80;81.40
42913;DHT22;50720;54.324;18.558;2023-11-21T10:11:30;3.00;99.90
42913;DHT22;50720;54.324;18.558;2023-11-21T10:14:18;3.00;1.00
42913;DHT22;50720;54.324;18.558;2023-11-21T10:17:04;3.00;1.00
42913;DHT22;50720;54.324;18.558;2023-11-21T10:19:53;2.80;1.00
42913;DHT22;50720;54.324;18.558;2023-11-21T10:22:39;2.80;1.00
42913;DHT22;50720;54.324;18.558;2023-11-21T10:25:24;2.80;1.00
42913;DHT22;50720;54.324;18.558;2023-11-21T10:28:07;2.60;1.00
42913;DHT22;50720;54.324;18.558;2023-11-21T10:30:52;2.70;1.00
42913;DHT22;50720;54.324;18.558;2023-11-21T10:33:36;2.70;1.00
42913;DHT22;50720;54.324;18.558;2023-11-21T10:36:27;2.70;1.00
42913;DHT22;50720;54.324;18.558;2023-11-21T10:39:14;2.50;99.90
42913;DHT22;50720;54.324;18.558;2023-11-21T10:42:01;2.50;99.90
42913;DHT22;50720;54.324;18.558;2023-11-21T10:44:46;2.50;99.90
42913;DHT22;50720;54.324;18.558;2023-11-21T10:47:31;2.40;99.90
42913;DHT22;50720;54.324;18.558;2023-11-21T10:50:18;2.40;99.90
42913;DHT22;50720;54.324;18.558;2023-11-21T10:53:04;2.60;99.90
42913;DHT22;50720;54.324;18.558;2023-11-21T10:55:48;2.60;99.90
42913;DHT22;50720;54.324;18.558;2023-11-21T10:58:33;2.70;99.90
42913;DHT22;50720;54.324;18.558;2023-11-21T11:01:19;2.70;99.90
42913;DHT22;50720;54.324;18.558;2023-11-21T11:04:06;2.60;99.90
42913;DHT22;50720;54.324;18.558;2023-11-21T11:06:58;2.60;99.90
42913;DHT22;50720;54.324;18.558;2023-11-21T11:09:48;2.60;99.90
42913;DHT22;50720;54.324;18.558;2023-11-21T11:12:32;2.60;99.90
42913;DHT22;50720;54.324;18.558;2023-11-21T11:15:16;2.70;99.90
42913;DHT22;50720;54.324;18.558;2023-11-21T11:18:00;3.20;99.90
42913;DHT22;50720;54.324;18.558;2023-11-21T11:20:46;5.80;99.90
42913;DHT22;50720;54.324;18.558;2023-11-21T11:23:41;3.10;99.80
42913;DHT22;50720;54.324;18.558;2023-11-21T11:26:35;2.80;54.30
42913;DHT22;50720;54.324;18.558;2023-11-21T11:29:28;2.80;99.90
42913;DHT22;50720;54.324;18.558;2023-11-21T11:32:21;2.70;99.90
42913;DHT22;50720;54.324;18.558;2023-11-21T11:35:13;2.50;99.90
42913;DHT22;50720;54.324;18.558;2023-11-21T11:37:59;2.50;99.90
42913;DHT22;50720;54.324;18.558;2023-11-21T11:40:45;2.50;99.90
42913;DHT22;50720;54.324;18.558;2023-11-21T11:43:31;2.50;99.90
42913;DHT22;50720;54.324;18.558;2023-11-21T11:46:40;2.40;99.90
42913;DHT22;50720;54.324;18.558;2023-11-21T11:49:25;2.30;99.90
42913;DHT22;50720;54.324;18.558;2023-11-21T11:52:36;2.50;99.90
42913;DHT22;50720;54.324;18.558;2023-11-21T11:55:22;2.40;99.90
42913;DHT22;50720;54.324;18.558;2023-11-21T11:58:06;2.60;99.90
42913;DHT22;50720;54.324;18.558;2023-11-21T12:00:51;2.90;99.90
42913;DHT22;50720;54.324;18.558;2023-11-21T12:03:37;2.70;99.90
42913;DHT22;50720;54.324;18.558;2023-11-21T12:06:33;2.70;99.90
42913;DHT22;50720;54.324;18.558;2023-11-21T12:09:18;2.70;99.90
42913;DHT22;50720;54.324;18.558;2023-11-21T12:12:02;2.50;99.90
42913;DHT22;50720;54.324;18.558;2023-11-21T12:14:46;2.50;99.90
42913;DHT22;50720;54.324;18.558;2023-11-21T12:17:32;2.50;99.90
42913;DHT22;50720;54.324;18.558;2023-11-21T12:20:19;2.40;99.90
42913;DHT22;50720;54.324;18.558;2023-11-21T12:23:03;2.40;99.90
42913;DHT22;50720;54.324;18.558;2023-11-21T12:25:47;2.40;99.90
42913;DHT22;50720;54.324;18.558;2023-11-21T12:28:31;2.40;99.90
42913;DHT22;50720;54.324;18.558;2023-11-21T12:31:15;2.40;99.90
42913;DHT22;50720;54.324;18.558;2023-11-21T12:34:05;2.40;99.90
42913;DHT22;50720;54.324;18.558;2023-11-21T12:36:49;2.40;99.90
42913;DHT22;50720;54.324;18.558;2023-11-21T12:39:33;2.80;99.90
42913;DHT22;50720;54.324;18.558;2023-11-21T12:42:16;3.70;99.90
42913;DHT22;50720;54.324;18.558;2023-11-21T12:45:18;4.40;29.00
42913;DHT22;50720;54.324;18.558;2023-11-21T12:48:02;5.00;1.00
42913;DHT22;50720;54.324;18.558;2023-11-21T12:50:52;5.20;1.00
42913;DHT22;50720;54.324;18.558;2023-11-21T12:53:35;5.10;99.90
42913;DHT22;50720;54.324;18.558;2023-11-21T12:56:22;4.80;99.90
42913;DHT22;50720;54.324;18.558;2023-11-21T12:59:06;4.30;99.90
42913;DHT22;50720;54.324;18.558;2023-11-21T13:01:58;4.30;99.90
42913;DHT22;50720;54.324;18.558;2023-11-21T13:04:52;4.00;99.90
42913;DHT22;50720;54.324;18.558;2023-11-21T13:07:42;4.30;99.90
42913;DHT22;50720;54.324;18.558;2023-11-21T13:10:30;4.90;99.90
42913;DHT22;50720;54.324;18.558;2023-11-21T13:13:15;4.40;99.90
42913;DHT22;50720;54.324;18.558;2023-11-21T13:16:06;4.30;99.90
42913;DHT22;50720;54.324;18.558;2023-11-21T13:18:50;3.90;99.90
42913;DHT22;50720;54.324;18.558;2023-11-21T13:21:34;4.10;99.90
42913;DHT22;50720;54.324;18.558;2023-11-21T13:24:19;3.90;99.90
42913;DHT22;50720;54.324;18.558;2023-11-21T13:27:04;3.60;99.90
42913;DHT22;50720;54.324;18.558;2023-11-21T13:29:48;3.40;99.90
42913;DHT22;50720;54.324;18.558;2023-11-21T13:32:33;3.40;99.90
42913;DHT22;50720;54.324;18.558;2023-11-21T13:35:17;3.00;99.90
42913;DHT22;50720;54.324;18.558;2023-11-21T13:38:07;3.00;99.90
42913;DHT22;50720;54.324;18.558;2023-11-21T13:40:53;2.80;99.90
42913;DHT22;50720;54.324;18.558;2023-11-21T13:43:36;2.70;99.90
42913;DHT22;50720;54.324;18.558;2023-11-21T13:46:20;2.60;1.00
42913;DHT22;50720;54.324;18.558;2023-11-21T13:49:05;2.50;1.00
42913;DHT22;50720;54.324;18.558;2023-11-21T13:51:52;2.60;1.00
42913;DHT22;50720;54.324;18.558;2023-11-21T13:54:37;2.60;1.00
42913;DHT22;50720;54.324;18.558;2023-11-21T13:57:23;2.60;1.00
42913;DHT22;50720;54.324;18.558;2023-11-21T14:00:07;2.60;1.00
42913;DHT22;50720;54.324;18.558;2023-11-21T14:03:05;2.60;9.90
42913;DHT22;50720;54.324;18.558;2023-11-21T14:05:58;2.50;69.40
42913;DHT22;50720;54.324;18.558;2023-11-21T14:08:43;2.50;99.90
42913;DHT22;50720;54.324;18.558;2023-11-21T14:11:26;2.60;99.90
42913;DHT22;50720;54.324;18.558;2023-11-21T14:14:18;2.50;99.90
42913;DHT22;50720;54.324;18.558;2023-11-21T14:17:02;2.50;99.90
42913;DHT22;50720;54.324;18.558;2023-11-21T14:19:49;2.50;99.90
42913;DHT22;50720;54.324;18.558;2023-11-21T14:22:34;2.30;99.90
42913;DHT22;50720;54.324;18.558;2023-11-21T14:25:18;2.30;99.90
42913;DHT22;50720;54.324;18.558;2023-11-21T14:28:03;2.40;1.00
42913;DHT22;50720;54.324;18.558;2023-11-21T14:30:49;2.30;1.00
42913;DHT22;50720;54.324;18.558;2023-11-21T14:33:33;2.30;1.00
42913;DHT22;50720;54.324;18.558;2023-11-21T14:36:16;2.20;27.00
42913;DHT22;50720;54.324;18.558;2023-11-21T14:39:00;2.20;72.70
42913;DHT22;50720;54.324;18.558;2023-11-21T14:41:43;2.20;52.40
42913;DHT22;50720;54.324;18.558;2023-11-21T14:44:27;2.20;33.70
42913;DHT22;50720;54.324;18.558;2023-11-21T14:47:16;2.10;45.80
42913;DHT22;50720;54.324;18.558;2023-11-21T14:50:07;2.10;97.30
42913;DHT22;50720;54.324;18.558;2023-11-21T14:53:12;2.10;24.70
42913;DHT22;50720;54.324;18.558;2023-11-21T14:55:56;2.10;50.40
42913;DHT22;50720;54.324;18.558;2023-11-21T14:58:42;2.10;67.30
42913;DHT22;50720;54.324;18.558;2023-11-21T15:01:26;2.10;14.10
42913;DHT22;50720;54.324;18.558;2023-11-21T15:04:26;2.20;35.80
42913;DHT22;50720;54.324;18.558;2023-11-21T15:07:18;2.10;91.10
42913;DHT22;50720;54.324;18.558;2023-11-21T15:10:00;2.10;99.90
42913;DHT22;50720;54.324;18.558;2023-11-21T15:12:45;2.10;99.90
42913;DHT22;50720;54.324;18.558;2023-11-21T15:15:28;2.10;99.90
42913;DHT22;50720;54.324;18.558;2023-11-21T15:18:14;2.00;99.90
42913;DHT22;50720;54.324;18.558;2023-11-21T15:20:59;2.10;99.90
42913;DHT22;50720;54.324;18.558;2023-11-21T15:23:42;2.00;99.90
42913;DHT22;50720;54.324;18.558;2023-11-21T15:26:26;2.10;43.00
42913;DHT22;50720;54.324;18.558;2023-11-21T15:29:11;1.90;17.40
42913;DHT22;50720;54.324;18.558;2023-11-21T15:31:56;2.00;13.90
42913;DHT22;50720;54.324;18.558;2023-11-21T15:34:40;2.00;20.00
42913;DHT22;50720;54.324;18.558;2023-11-21T15:37:25;1.80;1.00
42913;DHT22;50720;54.324;18.558;2023-11-21T15:40:11;1.80;1.00
42913;DHT22;50720;54.324;18.558;2023-11-21T15:42:56;1.60;1.00
42913;DHT22;50720;54.324;18.558;2023-11-21T15:45:40;1.40;1.00
42913;DHT22;50720;54.324;18.558;2023-11-21T15:48:23;1.30;1.00
42913;DHT22;50720;54.324;18.558;2023-11-21T15:51:07;1.10;1.00
42913;DHT22;50720;54.324;18.558;2023-11-21T15:53:56;1.10;99.90
42913;DHT22;50720;54.324;18.558;2023-11-21T15:56:40;1.10;99.90
42913;DHT22;50720;54.324;18.558;2023-11-21T15:59:24;1.10;99.90
42913;DHT22;50720;54.324;18.558;2023-11-21T16:02:11;1.00;99.90
42913;DHT22;50720;54.324;18.558;2023-11-21T16:04:57;0.90;99.90
42913;DHT22;50720;54.324;18.558;2023-11-21T16:07:41;0.90;99.90
42913;DHT22;50720;54.324;18.558;2023-11-21T16:10:27;0.90;99.90
42913;DHT22;50720;54.324;18.558;2023-11-21T16:13:10;0.80;99.90
42913;DHT22;50720;54.324;18.558;2023-11-21T16:15:55;0.80;99.90
42913;DHT22;50720;54.324;18.558;2023-11-21T16:18:38;0.80;99.90
42913;DHT22;50720;54.324;18.558;2023-11-21T16:21:22;0.70;99.90
42913;DHT22;50720;54.324;18.558;2023-11-21T16:24:07;0.70;99.90
42913;DHT22;50720;54.324;18.558;2023-11-21T16:26:52;0.60;99.90
42913;DHT22;50720;54.324;18.558;2023-11-21T16:29:36;0.60;99.90
42913;DHT22;50720;54.324;18.558;2023-11-21T16:32:20;0.60;99.90
42913;DHT22;50720;54.324;18.558;2023-11-21T16:35:05;0.60;99.90
42913;DHT22;50720;54.324;18.558;2023-11-21T16:37:48;0.60;99.90
42913;DHT22;50720;54.324;18.558;2023-11-21T16:40:32;0.50;99.90
42913;DHT22;50720;54.324;18.558;2023-11-21T16:43:17;0.50;99.90
42913;DHT22;50720;54.324;18.558;2023-11-21T16:46:00;0.50;99.90
42913;DHT22;50720;54.324;18.558;2023-11-21T16:48:44;0.30;1.00
42913;DHT22;50720;54.324;18.558;2023-11-21T16:51:27;0.30;1.00
42913;DHT22;50720;54.324;18.558;2023-11-21T16:54:12;0.20;1.00
42913;DHT22;50720;54.324;18.558;2023-11-21T16:56:57;0.10;1.00
42913;DHT22;50720;54.324;18.558;2023-11-21T16:59:42;0.10;1.00
42913;DHT22;50720;54.324;18.558;2023-11-21T17:02:26;0.10;18.00
42913;DHT22;50720;54.324;18.558;2023-11-21T17:05:09;0.00;56.40
42913;DHT22;50720;54.324;18.558;2023-11-21T17:07:53;-0.10;99.90
42913;DHT22;50720;54.324;18.558;2023-11-21T17:10:37;-0.10;99.90
42913;DHT22;50720;54.324;18.558;2023-11-21T17:13:20;-0.20;99.90
42913;DHT22;50720;54.324;18.558;2023-11-21T17:16:06;-0.20;99.90
42913;DHT22;50720;54.324;18.558;2023-11-21T17:18:49;-0.20;1.00
42913;DHT22;50720;54.324;18.558;2023-11-21T17:21:33;-0.30;1.00